^^
MeteoGriva-Weather Station Historical Data
Daily Summary for August 02, 2020 Units:  Both    English   Metric
Daily Weekly Monthly Yearly Custom
  High: Low: Average:
Temperature: 93 °F /  33.9 °C 71.2 °F /  21.8 °C 80.4 °F /  26.9 °C
Dew Point: 70.5 °F /  21.4 °C 56.7 °F /  13.7 °C 63.3 °F /  17.4 °C
Humidity: 78.9% 33.2% 58%
Wind Speed: 7.7mph /  12.4km/h - 1.6mph /  2.6km/h
Wind Gust: 17.4mph /  28km/h - -
Wind- - SSE
Pressure: 29.8 in /  1009.1 hPa 29.7 in /  1004.4 hPa -
Precipitation: 0 in /  0.0 mm    
Historical Graphs
 
 
Tabular Data for August 02, 2020
Time Temperature Dew Point Pressure Wind Wind Speed Wind Gust Humidity Rainfall Rate (Hourly) solar
00:04 77.9 °F /  25.5 °C 61.5 °F /  16.4 °C 29.7in /  1004.7hPa Calm   2.5mph /  4km/h 57.1% 0in /  0.0mm 0 W/m2
00:09 78.4 °F /  25.8 °C 61.7 °F /  16.5 °C 29.7in /  1004.7hPa Calm   4.9mph /  7.9km/h 56.8% 0in /  0.0mm 0 W/m2
00:14 78.6 °F /  25.9 °C 62.4 °F /  16.9 °C 29.7in /  1004.7hPa Calm     57.8% 0in /  0.0mm 0 W/m2
00:19 78.4 °F /  25.8 °C 63 °F /  17.2 °C 29.7in /  1004.7hPa Calm     59.1% 0in /  0.0mm 0 W/m2
00:24 78.1 °F /  25.6 °C 63.1 °F /  17.3 °C 29.7in /  1004.7hPa NNW 0.4mph /  0.6km/h 4.9mph /  7.9km/h 60% 0in /  0.0mm 0 W/m2
00:29 77 °F /  25 °C 62.4 °F /  16.9 °C 29.7in /  1004.7hPa Calm   4.9mph /  7.9km/h 60.6% 0in /  0.0mm 0 W/m2
00:34 76.3 °F /  24.6 °C 61.9 °F /  16.6 °C 29.7in /  1004.7hPa Calm     61% 0in /  0.0mm 0 W/m2
00:39 76.3 °F /  24.6 °C 61.7 °F /  16.5 °C 29.7in /  1005.1hPa Calm     60.8% 0in /  0.0mm 0 W/m2
00:44 76.1 °F /  24.5 °C 61.7 °F /  16.5 °C 29.7in /  1005.1hPa Calm     60.7% 0in /  0.0mm 0 W/m2
00:49 75.9 °F /  24.4 °C 61.3 °F /  16.3 °C 29.7in /  1005.1hPa NW 0.9mph /  1.4km/h 7.6mph /  12.2km/h 60.3% 0in /  0.0mm 0 W/m2
00:54 75.9 °F /  24.4 °C 60.8 °F /  16 °C 29.7in /  1005.1hPa North 2mph /  3.2km/h 7.6mph /  12.2km/h 59.2% 0in /  0.0mm 0 W/m2
00:59 76.1 °F /  24.5 °C 60.6 °F /  15.9 °C 29.7in /  1004.7hPa North 3.9mph /  6.2km/h 7.6mph /  12.2km/h 58.4% 0in /  0.0mm 0 W/m2
01:04 76.5 °F /  24.7 °C 60.8 °F /  16 °C 29.7in /  1005.1hPa North 1.9mph /  3km/h 10.1mph /  16.3km/h 58.4% 0in /  0.0mm 0 W/m2
01:09 77.2 °F /  25.1 °C 61.9 °F /  16.6 °C 29.7in /  1004.7hPa NW 2.2mph /  3.6km/h 10.1mph /  16.3km/h 59.3% 0in /  0.0mm 0 W/m2
01:14 77.5 °F /  25.3 °C 62.8 °F /  17.1 °C 29.7in /  1005.1hPa North 1.6mph /  2.6km/h 7.6mph /  12.2km/h 60.6% 0in /  0.0mm 0 W/m2
01:19 77.5 °F /  25.3 °C 63 °F /  17.2 °C 29.7in /  1005.1hPa NNW 1.3mph /  2.1km/h 7.6mph /  12.2km/h 61.2% 0in /  0.0mm 0 W/m2
01:24 77.4 °F /  25.2 °C 63.1 °F /  17.3 °C 29.7in /  1005.1hPa West 0.2mph /  0.3km/h 4.9mph /  7.9km/h 61.9% 0in /  0.0mm 0 W/m2
01:29 76.8 °F /  24.9 °C 63.3 °F /  17.4 °C 29.7in /  1004.7hPa NW 0.2mph /  0.3km/h 2.5mph /  4km/h 63% 0in /  0.0mm 0 W/m2
01:34 76.3 °F /  24.6 °C 62.4 °F /  16.9 °C 29.7in /  1005.1hPa Calm   2.5mph /  4km/h 62.2% 0in /  0.0mm 0 W/m2
01:39 76.3 °F /  24.6 °C 62.2 °F /  16.8 °C 29.7in /  1005.1hPa Calm     61.8% 0in /  0.0mm 0 W/m2
01:44 76.1 °F /  24.5 °C 62.1 °F /  16.7 °C 29.7in /  1005.1hPa Calm     62% 0in /  0.0mm 0 W/m2
01:49 75.9 °F /  24.4 °C 62.1 °F /  16.7 °C 29.7in /  1004.7hPa Calm     62% 0in /  0.0mm 0 W/m2
01:54 75.6 °F /  24.2 °C 61.9 °F /  16.6 °C 29.7in /  1004.7hPa Calm     62.6% 0in /  0.0mm 0 W/m2
01:59 75.6 °F /  24.2 °C 61.9 °F /  16.6 °C 29.7in /  1004.7hPa Calm     62.7% 0in /  0.0mm 0 W/m2
02:04 75.6 °F /  24.2 °C 62.1 °F /  16.7 °C 29.7in /  1004.7hPa Calm     63% 0in /  0.0mm 0 W/m2
02:09 75.2 °F /  24 °C 61.5 °F /  16.4 °C 29.7in /  1004.7hPa Calm     62.6% 0in /  0.0mm 0 W/m2
02:14 75 °F /  23.9 °C 61.3 °F /  16.3 °C 29.7in /  1004.7hPa Calm     62.2% 0in /  0.0mm 0 W/m2
02:19 75 °F /  23.9 °C 61.3 °F /  16.3 °C 29.7in /  1004.7hPa Calm     62.4% 0in /  0.0mm 0 W/m2
02:24 75 °F /  23.9 °C 61 °F /  16.1 °C 29.7in /  1004.7hPa Calm     61.7% 0in /  0.0mm 0 W/m2
02:29 75.6 °F /  24.2 °C 60.8 °F /  16 °C 29.7in /  1004.7hPa Calm     60.6% 0in /  0.0mm 0 W/m2
02:34 76.1 °F /  24.5 °C 61 °F /  16.1 °C 29.7in /  1004.7hPa Calm     59.7% 0in /  0.0mm 0 W/m2
02:44 75.9 °F /  24.4 °C 62.1 °F /  16.7 °C 29.7in /  1004.7hPa Calm     62% 0in /  0.0mm 0 W/m2
02:49 75.6 °F /  24.2 °C 62.6 °F /  17 °C 29.7in /  1004.7hPa Calm     64.3% 0in /  0.0mm 0 W/m2
02:54 74.8 °F /  23.8 °C 63.1 °F /  17.3 °C 29.7in /  1004.4hPa Calm     66.8% 0in /  0.0mm 0 W/m2
02:59 75 °F /  23.9 °C 63.3 °F /  17.4 °C 29.7in /  1004.4hPa Calm     67.1% 0in /  0.0mm 0 W/m2
03:04 75 °F /  23.9 °C 63 °F /  17.2 °C 29.7in /  1004.7hPa Calm     66% 0in /  0.0mm 0 W/m2
03:09 74.8 °F /  23.8 °C 62.8 °F /  17.1 °C 29.7in /  1004.7hPa Calm     66% 0in /  0.0mm 0 W/m2
03:14 74.7 °F /  23.7 °C 63.3 °F /  17.4 °C 29.7in /  1004.7hPa Calm     67.7% 0in /  0.0mm 0 W/m2
03:19 74.7 °F /  23.7 °C 64.8 °F /  18.2 °C 29.7in /  1004.7hPa Calm     71.1% 0in /  0.0mm 0 W/m2
03:24 74.7 °F /  23.7 °C 64.6 °F /  18.1 °C 29.7in /  1004.4hPa Calm     70.8% 0in /  0.0mm 0 W/m2
03:29 74.8 °F /  23.8 °C 63.9 °F /  17.7 °C 29.7in /  1004.7hPa South 0.2mph /  0.4km/h 4.9mph /  7.9km/h 68.8% 0in /  0.0mm 0 W/m2
03:34 74.7 °F /  23.7 °C 64.4 °F /  18 °C 29.7in /  1004.7hPa Calm   4.9mph /  7.9km/h 70.8% 0in /  0.0mm 0 W/m2
03:39 74.5 °F /  23.6 °C 64.2 °F /  17.9 °C 29.7in /  1004.7hPa Calm     70.8% 0in /  0.0mm 0 W/m2
03:44 74.3 °F /  23.5 °C 64.4 °F /  18 °C 29.7in /  1004.7hPa Calm     71.3% 0in /  0.0mm 0 W/m2
03:49 73.6 °F /  23.1 °C 64 °F /  17.8 °C 29.7in /  1004.7hPa Calm     71.9% 0in /  0.0mm 0 W/m2
03:54 72.7 °F /  22.6 °C 62.6 °F /  17 °C 29.7in /  1004.7hPa NW 0.2mph /  0.3km/h 4.9mph /  7.9km/h 70.7% 0in /  0.0mm 0 W/m2
03:59 72.7 °F /  22.6 °C 62.2 °F /  16.8 °C 29.7in /  1004.7hPa Calm   4.9mph /  7.9km/h 70% 0in /  0.0mm 0 W/m2
04:04 72.7 °F /  22.6 °C 62.2 °F /  16.8 °C 29.7in /  1004.7hPa Calm     70% 0in /  0.0mm 0 W/m2
04:09 73 °F /  22.8 °C 62.6 °F /  17 °C 29.7in /  1004.7hPa Calm     70.3% 0in /  0.0mm 0 W/m2
04:14 73 °F /  22.8 °C 63.3 °F /  17.4 °C 29.7in /  1004.7hPa Calm     71.7% 0in /  0.0mm 0 W/m2
04:19 73 °F /  22.8 °C 63.5 °F /  17.5 °C 29.7in /  1004.7hPa Calm     72.2% 0in /  0.0mm 0 W/m2
04:24 73 °F /  22.8 °C 64 °F /  17.8 °C 29.7in /  1004.7hPa Calm     73.3% 0in /  0.0mm 0 W/m2
04:29 72.9 °F /  22.7 °C 63.9 °F /  17.7 °C 29.7in /  1004.7hPa Calm     73.4% 0in /  0.0mm 0 W/m2
04:34 72.7 °F /  22.6 °C 63.3 °F /  17.4 °C 29.7in /  1004.7hPa Calm     72.3% 0in /  0.0mm 0 W/m2
04:39 72.7 °F /  22.6 °C 63.1 °F /  17.3 °C 29.7in /  1005.1hPa Calm     71.8% 0in /  0.0mm 0 W/m2
04:44 72.9 °F /  22.7 °C 63.7 °F /  17.6 °C 29.7in /  1005.1hPa Calm     72.9% 0in /  0.0mm 0 W/m2
04:49 73 °F /  22.8 °C 63.5 °F /  17.5 °C 29.7in /  1005.1hPa Calm     72% 0in /  0.0mm 0 W/m2
04:54 73.4 °F /  23 °C 64 °F /  17.8 °C 29.7in /  1005.1hPa Calm     72.4% 0in /  0.0mm 0 W/m2
04:59 73.2 °F /  22.9 °C 64.4 °F /  18 °C 29.7in /  1005.1hPa Calm     74% 0in /  0.0mm 0 W/m2
05:09 73 °F /  22.8 °C 64.9 °F /  18.3 °C 29.7in /  1005.1hPa Calm     75.7% 0in /  0.0mm 0 W/m2
05:14 72.3 °F /  22.4 °C 64.4 °F /  18 °C 29.7in /  1005.1hPa SSW 0.4mph /  0.6km/h 7.6mph /  12.2km/h 76% 0in /  0.0mm 0 W/m2
05:19 72.3 °F /  22.4 °C 64.2 °F /  17.9 °C 29.7in /  1005.4hPa South 2.6mph /  4.2km/h 7.6mph /  12.2km/h 75.8% 0in /  0.0mm 0 W/m2
05:24 72.3 °F /  22.4 °C 64.6 °F /  18.1 °C 29.7in /  1005.4hPa South 2.3mph /  3.7km/h 7.6mph /  12.2km/h 76.3% 0in /  0.0mm 0 W/m2
05:29 72.3 °F /  22.4 °C 64.4 °F /  18 °C 29.7in /  1005.4hPa South 2.4mph /  3.8km/h 7.6mph /  12.2km/h 76% 0in /  0.0mm 0 W/m2
05:34 72.3 °F /  22.4 °C 64.9 °F /  18.3 °C 29.7in /  1005.8hPa Calm   4.9mph /  7.9km/h 77.4% 0in /  0.0mm 0 W/m2
05:39 72.3 °F /  22.4 °C 64.9 °F /  18.3 °C 29.7in /  1005.8hPa Calm     77.2% 0in /  0.0mm 0 W/m2
05:44 72.1 °F /  22.3 °C 64.4 °F /  18 °C 29.7in /  1005.8hPa Calm     76.1% 0in /  0.0mm 0 W/m2
05:49 72.1 °F /  22.3 °C 64.4 °F /  18 °C 29.7in /  1005.8hPa Calm     76.7% 0in /  0.0mm 0 W/m2
05:54 71.6 °F /  22 °C 64 °F /  17.8 °C 29.7in /  1005.8hPa Calm     77% 0in /  0.0mm 0 W/m2
05:59 71.6 °F /  22 °C 64 °F /  17.8 °C 29.7in /  1005.8hPa Calm     77% 0in /  0.0mm 0 W/m2
06:04 71.6 °F /  22 °C 64.2 °F /  17.9 °C 29.7in /  1006.1hPa Calm     77.6% 0in /  0.0mm 0 W/m2
06:09 71.6 °F /  22 °C 64.4 °F /  18 °C 29.7in /  1005.8hPa Calm     78% 0in /  0.0mm 0 W/m2
06:14 71.4 °F /  21.9 °C 63.9 °F /  17.7 °C 29.7in /  1006.1hPa Calm     77.3% 0in /  0.0mm 0 W/m2
06:19 71.2 °F /  21.8 °C 63.7 °F /  17.6 °C 29.7in /  1006.1hPa Calm     77% 0in /  0.0mm 0 W/m2
06:24 71.2 °F /  21.8 °C 63.7 °F /  17.6 °C 29.7in /  1006.4hPa NNW 0.1mph /  0.2km/h 2.5mph /  4km/h 77% 0in /  0.0mm 0 W/m2
06:29 71.4 °F /  21.9 °C 63.5 °F /  17.5 °C 29.7in /  1006.4hPa Calm   2.5mph /  4km/h 76.1% 0in /  0.0mm 3 W/m2
06:34 71.6 °F /  22 °C 63.9 °F /  17.7 °C 29.7in /  1006.4hPa Calm     76.7% 0in /  0.0mm 6 W/m2
06:39 71.6 °F /  22 °C 63.9 °F /  17.7 °C 29.7in /  1006.1hPa Calm   2.5mph /  4km/h 76.3% 0in /  0.0mm 11 W/m2
06:44 71.6 °F /  22 °C 64 °F /  17.8 °C 29.7in /  1006.1hPa Calm     77% 0in /  0.0mm 37 W/m2
06:49 71.6 °F /  22 °C 63.7 °F /  17.6 °C 29.7in /  1006.4hPa Calm     76.1% 0in /  0.0mm 66 W/m2
06:54 72.1 °F /  22.3 °C 63.9 °F /  17.7 °C 29.7in /  1006.4hPa Calm     75.1% 0in /  0.0mm 91 W/m2
06:59 72.3 °F /  22.4 °C 63.5 °F /  17.5 °C 29.7in /  1006.4hPa Calm     74% 0in /  0.0mm 107 W/m2
07:04 72.7 °F /  22.6 °C 63.3 °F /  17.4 °C 29.7in /  1006.4hPa Calm     72.4% 0in /  0.0mm 123 W/m2
07:09 73 °F /  22.8 °C 62.8 °F /  17.1 °C 29.7in /  1006.4hPa Calm     70.2% 0in /  0.0mm 139 W/m2
07:14 75.7 °F /  24.3 °C 64.8 °F /  18.2 °C 29.7in /  1006.4hPa Calm     68.7% 0in /  0.0mm 154 W/m2
07:19 76.1 °F /  24.5 °C 64.9 °F /  18.3 °C 29.7in /  1006.4hPa Calm     68.4% 0in /  0.0mm 167 W/m2
07:24 76.3 °F /  24.6 °C 64.4 °F /  18 °C 29.7in /  1006.4hPa Calm     66.7% 0in /  0.0mm 183 W/m2
07:29 76.8 °F /  24.9 °C 63.9 °F /  17.7 °C 29.7in /  1006.8hPa Calm     64.1% 0in /  0.0mm 200 W/m2
07:34 79.7 °F /  26.5 °C 66.4 °F /  19.1 °C 29.7in /  1006.4hPa Calm     64.1% 0in /  0.0mm 208 W/m2
07:39 80.1 °F /  26.7 °C 67.3 °F /  19.6 °C 29.7in /  1006.4hPa Calm     65% 0in /  0.0mm 228 W/m2
07:44 79.9 °F /  26.6 °C 67.3 °F /  19.6 °C 29.7in /  1006.4hPa Calm     65.5% 0in /  0.0mm 240 W/m2
07:49 79.9 °F /  26.6 °C 66.7 °F /  19.3 °C 29.7in /  1006.4hPa Calm     64.3% 0in /  0.0mm 256 W/m2
07:54 80.1 °F /  26.7 °C 66.7 °F /  19.3 °C 29.7in /  1006.4hPa Calm     64% 0in /  0.0mm 245 W/m2
07:59 80.1 °F /  26.7 °C 66.7 °F /  19.3 °C 29.7in /  1006.8hPa Calm     63.9% 0in /  0.0mm 257 W/m2
08:04 80.1 °F /  26.7 °C 66.6 °F /  19.2 °C 29.7in /  1006.8hPa Calm     63.1% 0in /  0.0mm 281 W/m2
08:09 80.2 °F /  26.8 °C 66.9 °F /  19.4 °C 29.7in /  1006.8hPa Calm     63.9% 0in /  0.0mm 221 W/m2
08:14 79.2 °F /  26.2 °C 66.6 °F /  19.2 °C 29.7in /  1006.8hPa Calm     65.6% 0in /  0.0mm 269 W/m2
08:19 79 °F /  26.1 °C 67.1 °F /  19.5 °C 29.7in /  1006.8hPa Calm     67% 0in /  0.0mm 270 W/m2
08:24 78.8 °F /  26 °C 67.1 °F /  19.5 °C 29.7in /  1006.8hPa Calm     67.7% 0in /  0.0mm 280 W/m2
08:29 78.6 °F /  25.9 °C 67.5 °F /  19.7 °C 29.7in /  1007.1hPa Calm     68.6% 0in /  0.0mm 279 W/m2
08:34 80.1 °F /  26.7 °C 67.1 °F /  19.5 °C 29.7in /  1006.8hPa Calm     64.7% 0in /  0.0mm 290 W/m2
08:39 80.4 °F /  26.9 °C 67.1 °F /  19.5 °C 29.7in /  1006.8hPa Calm     63.9% 0in /  0.0mm 292 W/m2
08:44 80.2 °F /  26.8 °C 68.4 °F /  20.2 °C 29.7in /  1007.1hPa NNE 1.1mph /  1.8km/h 4.9mph /  7.9km/h 66.7% 0in /  0.0mm 295 W/m2
08:49 80.1 °F /  26.7 °C 67.5 °F /  19.7 °C 29.7in /  1007.1hPa ENE 0.3mph /  0.5km/h 4.9mph /  7.9km/h 65.5% 0in /  0.0mm 302 W/m2
08:54 79.7 °F /  26.5 °C 65.1 °F /  18.4 °C 29.7in /  1007.1hPa Calm   2.5mph /  4km/h 61% 0in /  0.0mm 310 W/m2
08:59 79.7 °F /  26.5 °C 63.9 °F /  17.7 °C 29.7in /  1007.1hPa NNE 0.5mph /  0.8km/h 4.9mph /  7.9km/h 58.6% 0in /  0.0mm 315 W/m2
09:04 79.7 °F /  26.5 °C 63.9 °F /  17.7 °C 29.7in /  1007.1hPa NE 0.6mph /  0.9km/h 4.9mph /  7.9km/h 58.7% 0in /  0.0mm 321 W/m2
09:09 79.7 °F /  26.5 °C 63.5 °F /  17.5 °C 29.7in /  1007.1hPa NE 0.1mph /  0.2km/h 4.9mph /  7.9km/h 57.8% 0in /  0.0mm 326 W/m2
09:14 80.1 °F /  26.7 °C 63.5 °F /  17.5 °C 29.7in /  1007.1hPa ENE 0.2mph /  0.4km/h 4.9mph /  7.9km/h 56.9% 0in /  0.0mm 332 W/m2
09:19 80.4 °F /  26.9 °C 62.8 °F /  17.1 °C 29.7in /  1007.1hPa Calm     55.1% 0in /  0.0mm 337 W/m2
09:24 80.6 °F /  27 °C 62.1 °F /  16.7 °C 29.7in /  1007.1hPa Calm   2.5mph /  4km/h 53.4% 0in /  0.0mm 346 W/m2
09:29 81 °F /  27.2 °C 63 °F /  17.2 °C 29.7in /  1007.1hPa SE 0.2mph /  0.3km/h 4.9mph /  7.9km/h 54.6% 0in /  0.0mm 353 W/m2
09:34 82.4 °F /  28 °C 66.2 °F /  19 °C 29.7in /  1007.1hPa SE 0.4mph /  0.6km/h 2.5mph /  4km/h 58.3% 0in /  0.0mm 357 W/m2
09:39 82.9 °F /  28.3 °C 66.2 °F /  19 °C 29.7in /  1007.1hPa SE 0.2mph /  0.3km/h 2.5mph /  4km/h 56.8% 0in /  0.0mm 362 W/m2
09:44 83.1 °F /  28.4 °C 64.9 °F /  18.3 °C 29.7in /  1007.1hPa SSE 0.1mph /  0.2km/h 4.9mph /  7.9km/h 54.2% 0in /  0.0mm 372 W/m2
09:49 82.9 °F /  28.3 °C 62.2 °F /  16.8 °C 29.7in /  1007.1hPa ESE 1.2mph /  1.9km/h 7.6mph /  12.2km/h 49.8% 0in /  0.0mm 378 W/m2
09:54 82.9 °F /  28.3 °C 61.9 °F /  16.6 °C 29.7in /  1007.1hPa ESE 0.2mph /  0.3km/h 4.9mph /  7.9km/h 48.9% 0in /  0.0mm 386 W/m2
09:59 83.3 °F /  28.5 °C 58.8 °F /  14.9 °C 29.7in /  1006.8hPa East 0.5mph /  0.8km/h 2.5mph /  4km/h 43.7% 0in /  0.0mm 395 W/m2
10:04 83.3 °F /  28.5 °C 59.5 °F /  15.3 °C 29.7in /  1007.1hPa NNW 3.1mph /  5km/h 10.1mph /  16.3km/h 44.6% 0in /  0.0mm 397 W/m2
10:09 83.1 °F /  28.4 °C 59.5 °F /  15.3 °C 29.7in /  1007.1hPa North 3.7mph /  5.9km/h 10.1mph /  16.3km/h 44.8% 0in /  0.0mm 398 W/m2
10:14 82 °F /  27.8 °C 58.5 °F /  14.7 °C 29.7in /  1007.1hPa NE 1.1mph /  1.8km/h 10.1mph /  16.3km/h 44.8% 0in /  0.0mm 406 W/m2
10:19 81.7 °F /  27.6 °C 57.4 °F /  14.1 °C 29.7in /  1007.1hPa North 1.2mph /  1.9km/h 4.9mph /  7.9km/h 43.7% 0in /  0.0mm 417 W/m2
10:24 82 °F /  27.8 °C 57.2 °F /  14 °C 29.7in /  1007.1hPa ESE 0.2mph /  0.3km/h 4.9mph /  7.9km/h 42.8% 0in /  0.0mm 430 W/m2
10:29 82.6 °F /  28.1 °C 57.2 °F /  14 °C 29.7in /  1007.1hPa East 0.7mph /  1.2km/h 4.9mph /  7.9km/h 42.4% 0in /  0.0mm 438 W/m2
10:34 84 °F /  28.9 °C 57.7 °F /  14.3 °C 29.7in /  1007.1hPa East 0.7mph /  1.1km/h 7.6mph /  12.2km/h 40.8% 0in /  0.0mm 448 W/m2
10:39 84.9 °F /  29.4 °C 58.5 °F /  14.7 °C 29.7in /  1007.1hPa ESE 1.8mph /  2.9km/h 12.5mph /  20.1km/h 40.7% 0in /  0.0mm 452 W/m2
10:44 84.7 °F /  29.3 °C 58.6 °F /  14.8 °C 29.7in /  1006.8hPa ENE 0.2mph /  0.3km/h 10.1mph /  16.3km/h 41.2% 0in /  0.0mm 460 W/m2
10:49 84.6 °F /  29.2 °C 57.6 °F /  14.2 °C 29.7in /  1007.1hPa ESE 0.2mph /  0.4km/h 7.6mph /  12.2km/h 40% 0in /  0.0mm 470 W/m2
10:54 84.9 °F /  29.4 °C 57.6 °F /  14.2 °C 29.7in /  1007.1hPa ENE 0.6mph /  0.9km/h 7.6mph /  12.2km/h 39.5% 0in /  0.0mm 481 W/m2
10:59 84.9 °F /  29.4 °C 57.9 °F /  14.4 °C 29.7in /  1007.1hPa ENE 0.2mph /  0.4km/h 4.9mph /  7.9km/h 39.9% 0in /  0.0mm 481 W/m2
11:03 84.9 °F /  29.4 °C 57 °F /  13.9 °C 29.7in /  1007.1hPa North 0.1mph /  0.2km/h 2.5mph /  4km/h 38.8% 0in /  0.0mm 490 W/m2
11:09 85.1 °F /  29.5 °C 57.2 °F /  14 °C 29.8in /  1007.5hPa NE 0.3mph /  0.5km/h 2.5mph /  4km/h 38.7% 0in /  0.0mm 500 W/m2
11:14 85.6 °F /  29.8 °C 57.7 °F /  14.3 °C 29.7in /  1007.1hPa Calm   2.5mph /  4km/h 38.9% 0in /  0.0mm 507 W/m2
11:19 86.2 °F /  30.1 °C 57.6 °F /  14.2 °C 29.7in /  1007.1hPa SE 0.1mph /  0.2km/h 2.5mph /  4km/h 38% 0in /  0.0mm 512 W/m2
11:24 86.4 °F /  30.2 °C 59.5 °F /  15.3 °C 29.7in /  1007.1hPa NE 1.3mph /  2.1km/h 7.6mph /  12.2km/h 40.5% 0in /  0.0mm 513 W/m2
11:29 86 °F /  30 °C 60.3 °F /  15.7 °C 29.7in /  1007.1hPa ENE 1.9mph /  3km/h 7.6mph /  12.2km/h 41.9% 0in /  0.0mm 509 W/m2
11:34 85.8 °F /  29.9 °C 59.2 °F /  15.1 °C 29.7in /  1007.1hPa Calm   4.9mph /  7.9km/h 40.7% 0in /  0.0mm 513 W/m2
11:39 85.8 °F /  29.9 °C 58.3 °F /  14.6 °C 29.7in /  1007.1hPa SE 1.2mph /  2km/h 4.9mph /  7.9km/h 39.4% 0in /  0.0mm 519 W/m2
11:44 86.2 °F /  30.1 °C 57.9 °F /  14.4 °C 29.7in /  1007.1hPa Calm   4.9mph /  7.9km/h 38.5% 0in /  0.0mm 524 W/m2
11:49 86.5 °F /  30.3 °C 58.5 °F /  14.7 °C 29.7in /  1007.1hPa East 1.6mph /  2.5km/h 7.6mph /  12.2km/h 38.8% 0in /  0.0mm 526 W/m2
11:54 86.2 °F /  30.1 °C 58.8 °F /  14.9 °C 29.7in /  1007.1hPa East 1.7mph /  2.8km/h 7.6mph /  12.2km/h 39.7% 0in /  0.0mm 525 W/m2
11:59 85.5 °F /  29.7 °C 58.5 °F /  14.7 °C 29.7in /  1007.1hPa ENE 1.2mph /  2km/h 7.6mph /  12.2km/h 40% 0in /  0.0mm 521 W/m2
12:04 85.5 °F /  29.7 °C 58.5 °F /  14.7 °C 29.7in /  1007.1hPa NNE 1.9mph /  3km/h 10.1mph /  16.3km/h 39.9% 0in /  0.0mm 522 W/m2
12:09 85.6 °F /  29.8 °C 58.5 °F /  14.7 °C 29.7in /  1007.1hPa NE 2mph /  3.2km/h 7.6mph /  12.2km/h 40% 0in /  0.0mm 523 W/m2
12:14 86.2 °F /  30.1 °C 58.1 °F /  14.5 °C 29.7in /  1007.1hPa East 0.6mph /  0.9km/h 7.6mph /  12.2km/h 38.7% 0in /  0.0mm 528 W/m2
12:19 86.9 °F /  30.5 °C 59.2 °F /  15.1 °C 29.7in /  1007.1hPa NNW 0.8mph /  1.3km/h 7.6mph /  12.2km/h 39.2% 0in /  0.0mm 529 W/m2
12:24 86.7 °F /  30.4 °C 58.8 °F /  14.9 °C 29.7in /  1006.8hPa NNW 3.1mph /  5km/h 10.1mph /  16.3km/h 39.1% 0in /  0.0mm 531 W/m2
12:29 86.7 °F /  30.4 °C 58.8 °F /  14.9 °C 29.7in /  1007.1hPa NE 2.2mph /  3.6km/h 10.1mph /  16.3km/h 39.1% 0in /  0.0mm 529 W/m2
12:34 85.8 °F /  29.9 °C 58.1 °F /  14.5 °C 29.7in /  1007.1hPa NNE 2.4mph /  3.9km/h 7.6mph /  12.2km/h 39.3% 0in /  0.0mm 530 W/m2
12:39 84.7 °F /  29.3 °C 57 °F /  13.9 °C 29.7in /  1007.1hPa NNE 0.1mph /  0.2km/h 7.6mph /  12.2km/h 38.8% 0in /  0.0mm 537 W/m2
12:44 85.3 °F /  29.6 °C 56.7 °F /  13.7 °C 29.7in /  1007.1hPa ENE 0.6mph /  1km/h 4.9mph /  7.9km/h 37.8% 0in /  0.0mm 542 W/m2
12:49 85.3 °F /  29.6 °C 57 °F /  13.9 °C 29.7in /  1007.1hPa ENE 1.1mph /  1.7km/h 2.5mph /  4km/h 38.3% 0in /  0.0mm 543 W/m2
12:54 85.6 °F /  29.8 °C 58.5 °F /  14.7 °C 29.7in /  1006.8hPa North 1.9mph /  3km/h 7.6mph /  12.2km/h 39.8% 0in /  0.0mm 542 W/m2
12:59 86 °F /  30 °C 58.3 °F /  14.6 °C 29.7in /  1007.1hPa ESE 3.1mph /  5km/h 12.5mph /  20.1km/h 39.3% 0in /  0.0mm 540 W/m2
13:04 86.2 °F /  30.1 °C 58.5 °F /  14.7 °C 29.7in /  1007.1hPa ENE 3.2mph /  5.1km/h 12.5mph /  20.1km/h 39.1% 0in /  0.0mm 538 W/m2
13:09 86.5 °F /  30.3 °C 58.6 °F /  14.8 °C 29.7in /  1007.1hPa East 2.1mph /  3.4km/h 10.1mph /  16.3km/h 38.9% 0in /  0.0mm 541 W/m2
13:14 87.4 °F /  30.8 °C 59.4 °F /  15.2 °C 29.7in /  1007.1hPa SSE 2.3mph /  3.7km/h 10.1mph /  16.3km/h 38.7% 0in /  0.0mm 542 W/m2
13:19 88.5 °F /  31.4 °C 59.9 °F /  15.5 °C 29.7in /  1007.1hPa North 1.4mph /  2.3km/h 7.6mph /  12.2km/h 38.3% 0in /  0.0mm 545 W/m2
13:24 88.3 °F /  31.3 °C 60.1 °F /  15.6 °C 29.7in /  1006.8hPa NNE 5.3mph /  8.6km/h 12.5mph /  20.1km/h 38.7% 0in /  0.0mm 542 W/m2
13:29 88 °F /  31.1 °C 59.9 °F /  15.5 °C 29.7in /  1006.8hPa NE 5mph /  8km/h 12.5mph /  20.1km/h 39% 0in /  0.0mm 531 W/m2
13:34 87.1 °F /  30.6 °C 59.2 °F /  15.1 °C 29.7in /  1006.8hPa NE 3.5mph /  5.6km/h 15mph /  24.1km/h 39% 0in /  0.0mm 529 W/m2
13:39 86 °F /  30 °C 57.7 °F /  14.3 °C 29.7in /  1007.1hPa North 1.6mph /  2.5km/h 10.1mph /  16.3km/h 38.4% 0in /  0.0mm 537 W/m2
13:44 86.4 °F /  30.2 °C 57.7 °F /  14.3 °C 29.7in /  1006.8hPa NNE 3.9mph /  6.3km/h 10.1mph /  16.3km/h 38.2% 0in /  0.0mm 538 W/m2
13:49 86.5 °F /  30.3 °C 58.5 °F /  14.7 °C 29.7in /  1006.8hPa ENE 3.1mph /  5km/h 10.1mph /  16.3km/h 38.9% 0in /  0.0mm 537 W/m2
13:54 86.7 °F /  30.4 °C 58.5 °F /  14.7 °C 29.7in /  1006.8hPa North 3.5mph /  5.6km/h 12.5mph /  20.1km/h 38.4% 0in /  0.0mm 536 W/m2
13:59 87.6 °F /  30.9 °C 58.8 °F /  14.9 °C 29.7in /  1006.8hPa North 3.1mph /  5km/h 12.5mph /  20.1km/h 38% 0in /  0.0mm 537 W/m2
14:04 87.6 °F /  30.9 °C 58.6 °F /  14.8 °C 29.7in /  1006.8hPa ENE 1.8mph /  2.9km/h 7.6mph /  12.2km/h 37.8% 0in /  0.0mm 539 W/m2
14:09 87.4 °F /  30.8 °C 58.1 °F /  14.5 °C 29.7in /  1006.8hPa ENE 0.7mph /  1.2km/h 7.6mph /  12.2km/h 37.3% 0in /  0.0mm 549 W/m2
14:14 88 °F /  31.1 °C 58.1 °F /  14.5 °C 29.7in /  1006.8hPa SE 2.7mph /  4.3km/h 12.5mph /  20.1km/h 36.7% 0in /  0.0mm 549 W/m2
14:19 89.1 °F /  31.7 °C 58.8 °F /  14.9 °C 29.7in /  1006.4hPa SE 1.6mph /  2.5km/h 12.5mph /  20.1km/h 36.3% 0in /  0.0mm 548 W/m2
14:24 89.1 °F /  31.7 °C 59.2 °F /  15.1 °C 29.7in /  1006.4hPa NNE 2.5mph /  4.1km/h 10.1mph /  16.3km/h 36.7% 0in /  0.0mm 553 W/m2
14:29 89.1 °F /  31.7 °C 59.5 °F /  15.3 °C 29.7in /  1006.4hPa NE 2mph /  3.2km/h 7.6mph /  12.2km/h 37.3% 0in /  0.0mm 548 W/m2
14:34 88.7 °F /  31.5 °C 59.7 °F /  15.4 °C 29.7in /  1006.4hPa NNE 2.2mph /  3.6km/h 10.1mph /  16.3km/h 37.8% 0in /  0.0mm 543 W/m2
14:39 88.3 °F /  31.3 °C 59 °F /  15 °C 29.7in /  1006.4hPa NE 2.6mph /  4.2km/h 10.1mph /  16.3km/h 37.1% 0in /  0.0mm 544 W/m2
14:44 88.3 °F /  31.3 °C 59 °F /  15 °C 29.7in /  1006.4hPa SE 2.1mph /  3.4km/h 12.5mph /  20.1km/h 37.2% 0in /  0.0mm 547 W/m2
14:49 88.5 °F /  31.4 °C 58.5 °F /  14.7 °C 29.7in /  1006.4hPa SE 1.2mph /  1.9km/h 12.5mph /  20.1km/h 36.4% 0in /  0.0mm 550 W/m2
14:54 88.5 °F /  31.4 °C 58.5 °F /  14.7 °C 29.7in /  1006.4hPa NNE 1.1mph /  1.8km/h 10.1mph /  16.3km/h 36.4% 0in /  0.0mm 551 W/m2
14:59 88 °F /  31.1 °C 58.3 °F /  14.6 °C 29.7in /  1006.1hPa East 1.4mph /  2.3km/h 10.1mph /  16.3km/h 36.8% 0in /  0.0mm 551 W/m2
15:04 88.2 °F /  31.2 °C 57.9 °F /  14.4 °C 29.7in /  1006.1hPa ESE 0.8mph /  1.3km/h 4.9mph /  7.9km/h 36% 0in /  0.0mm 550 W/m2
15:09 88.3 °F /  31.3 °C 58.5 °F /  14.7 °C 29.7in /  1006.1hPa NE 1.4mph /  2.2km/h 7.6mph /  12.2km/h 36.6% 0in /  0.0mm 549 W/m2
15:14 88.5 °F /  31.4 °C 58.3 °F /  14.6 °C 29.7in /  1006.1hPa ESE 1.1mph /  1.8km/h 7.6mph /  12.2km/h 36.1% 0in /  0.0mm 549 W/m2
15:19 90 °F /  32.2 °C 58.6 °F /  14.8 °C 29.7in /  1006.1hPa ESE 0.2mph /  0.4km/h 7.6mph /  12.2km/h 35% 0in /  0.0mm 552 W/m2
15:24 90.1 °F /  32.3 °C 58.6 °F /  14.8 °C 29.7in /  1006.1hPa SSE 0.9mph /  1.5km/h 7.6mph /  12.2km/h 34.7% 0in /  0.0mm 556 W/m2
15:29 90.3 °F /  32.4 °C 59 °F /  15 °C 29.7in /  1006.1hPa SE 1.9mph /  3km/h 7.6mph /  12.2km/h 34.9% 0in /  0.0mm 555 W/m2
15:34 90.5 °F /  32.5 °C 59.2 °F /  15.1 °C 29.7in /  1005.8hPa South 1mph /  1.6km/h 7.6mph /  12.2km/h 35% 0in /  0.0mm 550 W/m2
15:39 91.8 °F /  33.2 °C 59.7 °F /  15.4 °C 29.7in /  1005.8hPa South 0.8mph /  1.3km/h 4.9mph /  7.9km/h 34.3% 0in /  0.0mm 550 W/m2
15:44 91.8 °F /  33.2 °C 59.7 °F /  15.4 °C 29.7in /  1005.8hPa SSE 0.4mph /  0.6km/h 4.9mph /  7.9km/h 34.3% 0in /  0.0mm 551 W/m2
15:49 91.8 °F /  33.2 °C 60.1 °F /  15.6 °C 29.7in /  1005.8hPa Calm     34.7% 0in /  0.0mm 548 W/m2
15:54 91.9 °F /  33.3 °C 59.4 °F /  15.2 °C 29.7in /  1005.8hPa Calm     33.8% 0in /  0.0mm 549 W/m2
15:59 93 °F /  33.9 °C 60.4 °F /  15.8 °C 29.7in /  1005.8hPa North 0.9mph /  1.5km/h 4.9mph /  7.9km/h 34% 0in /  0.0mm 549 W/m2
16:04 92.5 °F /  33.6 °C 60.1 °F /  15.6 °C 29.7in /  1005.8hPa Calm   2.5mph /  4km/h 34% 0in /  0.0mm 539 W/m2
16:09 91.9 °F /  33.3 °C 60.4 °F /  15.8 °C 29.7in /  1005.8hPa North 2.2mph /  3.5km/h 10.1mph /  16.3km/h 35.1% 0in /  0.0mm 538 W/m2
16:14 91.4 °F /  33 °C 60.3 °F /  15.7 °C 29.7in /  1005.4hPa East 1mph /  1.6km/h 10.1mph /  16.3km/h 35.3% 0in /  0.0mm 530 W/m2
16:19 90 °F /  32.2 °C 58.6 °F /  14.8 °C 29.7in /  1005.4hPa NE 0.5mph /  0.8km/h 4.9mph /  7.9km/h 35% 0in /  0.0mm 529 W/m2
16:24 90 °F /  32.2 °C 58.8 °F /  14.9 °C 29.7in /  1005.4hPa NNE 1.4mph /  2.2km/h 7.6mph /  12.2km/h 35.3% 0in /  0.0mm 525 W/m2
16:29 89.6 °F /  32 °C 58.3 °F /  14.6 °C 29.7in /  1005.4hPa Calm   2.5mph /  4km/h 34.8% 0in /  0.0mm 520 W/m2
16:34 89.8 °F /  32.1 °C 57 °F /  13.9 °C 29.7in /  1005.4hPa Calm     33.2% 0in /  0.0mm 525 W/m2
16:44 92.5 °F /  33.6 °C 66.4 °F /  19.1 °C 29.7in /  1005.4hPa SE 4mph /  6.4km/h 10.1mph /  16.3km/h 42.4% 0in /  0.0mm 519 W/m2
16:49 92.3 °F /  33.5 °C 68.4 °F /  20.2 °C 29.7in /  1005.4hPa South 3.7mph /  5.9km/h 10.1mph /  16.3km/h 45.8% 0in /  0.0mm 510 W/m2
16:54 91.9 °F /  33.3 °C 65.3 °F /  18.5 °C 29.7in /  1005.4hPa SSE 3.9mph /  6.2km/h 10.1mph /  16.3km/h 41.6% 0in /  0.0mm 504 W/m2
16:59 91 °F /  32.8 °C 62.1 °F /  16.7 °C 29.7in /  1005.4hPa South 1.3mph /  2.1km/h 7.6mph /  12.2km/h 38.3% 0in /  0.0mm 500 W/m2
17:04 91 °F /  32.8 °C 63.3 °F /  17.4 °C 29.7in /  1005.4hPa SE 0.4mph /  0.6km/h 7.6mph /  12.2km/h 40% 0in /  0.0mm 497 W/m2
17:09 91 °F /  32.8 °C 63.3 °F /  17.4 °C 29.7in /  1005.1hPa South 2.4mph /  3.8km/h 10.1mph /  16.3km/h 40% 0in /  0.0mm 494 W/m2
17:12 91 °F /  32.8 °C 63.5 °F /  17.5 °C 29.7in /  1005.1hPa SE 0.7mph /  1.2km/h 7.6mph /  12.2km/h 40.3% 0in /  0.0mm 488 W/m2
17:24 91.2 °F /  32.9 °C 62.8 °F /  17.1 °C 29.8in /  1009.1hPa Calm     38.9% 0in /  0.0mm 483 W/m2
17:29 91.4 °F /  33 °C 63.7 °F /  17.6 °C 29.7in /  1004.7hPa SSW 1.5mph /  2.4km/h 7.6mph /  12.2km/h 40% 0in /  0.0mm 480 W/m2
17:34 90.7 °F /  32.6 °C 66.2 °F /  19 °C 29.7in /  1005.1hPa SSE 3.1mph /  5km/h 10.1mph /  16.3km/h 44.6% 0in /  0.0mm 477 W/m2
17:39 89.8 °F /  32.1 °C 65.3 °F /  18.5 °C 29.7in /  1005.1hPa SSE 1.4mph /  2.3km/h 12.5mph /  20.1km/h 44.4% 0in /  0.0mm 465 W/m2
17:44 89.8 °F /  32.1 °C 63.7 °F /  17.6 °C 29.7in /  1005.1hPa SE 1.1mph /  1.8km/h 4.9mph /  7.9km/h 42.1% 0in /  0.0mm 456 W/m2
17:49 90 °F /  32.2 °C 63.5 °F /  17.5 °C 29.7in /  1005.1hPa ESE 0.2mph /  0.3km/h 4.9mph /  7.9km/h 41.6% 0in /  0.0mm 449 W/m2
17:54 90 °F /  32.2 °C 64.2 °F /  17.9 °C 29.7in /  1004.7hPa SSE 1.2mph /  1.9km/h 10.1mph /  16.3km/h 42.6% 0in /  0.0mm 445 W/m2
17:59 90 °F /  32.2 °C 69.1 °F /  20.6 °C 29.7in /  1005.1hPa South 5.1mph /  8.2km/h 12.5mph /  20.1km/h 50.6% 0in /  0.0mm 373 W/m2
18:04 89.4 °F /  31.9 °C 70.3 °F /  21.3 °C 29.7in /  1005.1hPa South 7.1mph /  11.4km/h 15mph /  24.1km/h 53.7% 0in /  0.0mm 415 W/m2
18:09 88.7 °F /  31.5 °C 69.6 °F /  20.9 °C 29.7in /  1005.1hPa South 7.7mph /  12.4km/h 17.4mph /  28km/h 53.2% 0in /  0.0mm 408 W/m2
18:14 87.4 °F /  30.8 °C 69.3 °F /  20.7 °C 29.7in /  1005.1hPa South 6.6mph /  10.6km/h 17.4mph /  28km/h 55.2% 0in /  0.0mm 403 W/m2
18:19 85.8 °F /  29.9 °C 69.6 °F /  20.9 °C 29.7in /  1004.7hPa South 6.8mph /  10.9km/h 17.4mph /  28km/h 58.6% 0in /  0.0mm 398 W/m2
18:24 85.6 °F /  29.8 °C 70 °F /  21.1 °C 29.7in /  1005.1hPa South 5.3mph /  8.5km/h 10.1mph /  16.3km/h 59.9% 0in /  0.0mm 328 W/m2
18:29 85.3 °F /  29.6 °C 70.5 °F /  21.4 °C 29.7in /  1005.1hPa South 3.9mph /  6.3km/h 10.1mph /  16.3km/h 61.4% 0in /  0.0mm 62 W/m2
18:34 84.2 °F /  29 °C 70 °F /  21.1 °C 29.7in /  1005.1hPa South 7.5mph /  12.1km/h 17.4mph /  28km/h 62.3% 0in /  0.0mm 58 W/m2
18:39 82.8 °F /  28.2 °C 69.1 °F /  20.6 °C 29.7in /  1005.1hPa South 6.8mph /  10.9km/h 17.4mph /  28km/h 63.4% 0in /  0.0mm 56 W/m2
18:44 82.8 °F /  28.2 °C 68.9 °F /  20.5 °C 29.7in /  1005.4hPa SSW 4.4mph /  7.1km/h 10.1mph /  16.3km/h 63.2% 0in /  0.0mm 54 W/m2
18:49 82.6 °F /  28.1 °C 68.9 °F /  20.5 °C 29.7in /  1005.4hPa South 6.3mph /  10.2km/h 12.5mph /  20.1km/h 63.4% 0in /  0.0mm 53 W/m2
18:54 82.2 °F /  27.9 °C 68.7 °F /  20.4 °C 29.7in /  1005.1hPa South 5.7mph /  9.1km/h 12.5mph /  20.1km/h 63.4% 0in /  0.0mm 51 W/m2
18:59 81.7 °F /  27.6 °C 69.1 °F /  20.6 °C 29.7in /  1005.4hPa South 6.2mph /  10km/h 12.5mph /  20.1km/h 65.6% 0in /  0.0mm 50 W/m2
19:04 81.7 °F /  27.6 °C 68.7 °F /  20.4 °C 29.7in /  1005.8hPa South 5.3mph /  8.6km/h 12.5mph /  20.1km/h 65% 0in /  0.0mm 49 W/m2
19:09 81.7 °F /  27.6 °C 69.1 °F /  20.6 °C 29.7in /  1005.4hPa SSE 5.7mph /  9.2km/h 12.5mph /  20.1km/h 66% 0in /  0.0mm 48 W/m2
19:14 81.3 °F /  27.4 °C 69.8 °F /  21 °C 29.7in /  1005.8hPa South 6.6mph /  10.7km/h 15mph /  24.1km/h 68.4% 0in /  0.0mm 47 W/m2
19:19 80.2 °F /  26.8 °C 69.4 °F /  20.8 °C 29.7in /  1005.8hPa South 4.5mph /  7.2km/h 15mph /  24.1km/h 69.6% 0in /  0.0mm 46 W/m2
19:24 80.2 °F /  26.8 °C 69.1 °F /  20.6 °C 29.7in /  1005.8hPa South 6.3mph /  10.1km/h 12.5mph /  20.1km/h 69.1% 0in /  0.0mm 44 W/m2
19:29 80.2 °F /  26.8 °C 68.7 °F /  20.4 °C 29.7in /  1005.8hPa South 4.5mph /  7.3km/h 10.1mph /  16.3km/h 68.3% 0in /  0.0mm 43 W/m2
19:34 79.9 °F /  26.6 °C 69.3 °F /  20.7 °C 29.7in /  1006.1hPa South 4.3mph /  6.9km/h 7.6mph /  12.2km/h 69.8% 0in /  0.0mm 41 W/m2
19:39 79.3 °F /  26.3 °C 68.9 °F /  20.5 °C 29.7in /  1005.8hPa SSE 6mph /  9.6km/h 10.1mph /  16.3km/h 70.7% 0in /  0.0mm 39 W/m2
19:44 79.3 °F /  26.3 °C 69.6 °F /  20.9 °C 29.7in /  1006.1hPa South 6.1mph /  9.8km/h 12.5mph /  20.1km/h 72.2% 0in /  0.0mm 37 W/m2
19:49 79.2 °F /  26.2 °C 70 °F /  21.1 °C 29.7in /  1005.8hPa South 5mph /  8km/h 12.5mph /  20.1km/h 73.2% 0in /  0.0mm 35 W/m2
19:54 79 °F /  26.1 °C 70.2 °F /  21.2 °C 29.7in /  1006.1hPa South 6.5mph /  10.5km/h 12.5mph /  20.1km/h 74.4% 0in /  0.0mm 33 W/m2
19:59 78.1 °F /  25.6 °C 69.4 °F /  20.8 °C 29.7in /  1006.1hPa South 6.3mph /  10.2km/h 12.5mph /  20.1km/h 75% 0in /  0.0mm 31 W/m2
20:04 77.9 °F /  25.5 °C 69.3 °F /  20.7 °C 29.7in /  1006.1hPa South 6.2mph /  9.9km/h 12.5mph /  20.1km/h 75% 0in /  0.0mm 28 W/m2
20:09 77.9 °F /  25.5 °C 69.8 °F /  21 °C 29.7in /  1006.1hPa South 6.2mph /  9.9km/h 12.5mph /  20.1km/h 75.9% 0in /  0.0mm 26 W/m2
20:14 77.7 °F /  25.4 °C 69.8 °F /  21 °C 29.7in /  1006.1hPa South 5.4mph /  8.7km/h 12.5mph /  20.1km/h 76.6% 0in /  0.0mm 23 W/m2
20:19 77.2 °F /  25.1 °C 69.6 °F /  20.9 °C 29.7in /  1006.1hPa South 3.4mph /  5.5km/h 7.6mph /  12.2km/h 77.7% 0in /  0.0mm 20 W/m2
20:24 77.2 °F /  25.1 °C 69.8 °F /  21 °C 29.7in /  1006.4hPa South 3.4mph /  5.5km/h 10.1mph /  16.3km/h 78% 0in /  0.0mm 17 W/m2
20:29 77.2 °F /  25.1 °C 69.8 °F /  21 °C 29.7in /  1006.4hPa SSW 3.5mph /  5.6km/h 10.1mph /  16.3km/h 78% 0in /  0.0mm 13 W/m2
20:34 77 °F /  25 °C 70 °F /  21.1 °C 29.7in /  1006.4hPa South 3.9mph /  6.3km/h 7.6mph /  12.2km/h 78.9% 0in /  0.0mm 9 W/m2
20:39 76.6 °F /  24.8 °C 69.4 °F /  20.8 °C 29.7in /  1006.4hPa South 4.4mph /  7.1km/h 12.5mph /  20.1km/h 78.6% 0in /  0.0mm 7 W/m2
20:44 76.5 °F /  24.7 °C 69.1 °F /  20.6 °C 29.7in /  1006.8hPa South 4mph /  6.5km/h 10.1mph /  16.3km/h 78% 0in /  0.0mm 4 W/m2
20:49 76.5 °F /  24.7 °C 69.1 °F /  20.6 °C 29.7in /  1006.8hPa South 5.7mph /  9.1km/h 12.5mph /  20.1km/h 78% 0in /  0.0mm 0 W/m2
20:54 76.5 °F /  24.7 °C 69.1 °F /  20.6 °C 29.7in /  1007.1hPa South 5.2mph /  8.3km/h 12.5mph /  20.1km/h 78% 0in /  0.0mm 0 W/m2
20:59 76.3 °F /  24.6 °C 68.9 °F /  20.5 °C 29.7in /  1007.1hPa South 4.2mph /  6.7km/h 10.1mph /  16.3km/h 78% 0in /  0.0mm 0 W/m2
21:04 76.3 °F /  24.6 °C 68.5 °F /  20.3 °C 29.7in /  1007.1hPa South 4.5mph /  7.2km/h 10.1mph /  16.3km/h 77% 0in /  0.0mm 0 W/m2
21:09 76.3 °F /  24.6 °C 68.2 °F /  20.1 °C 29.7in /  1007.1hPa South 4.8mph /  7.7km/h 10.1mph /  16.3km/h 76% 0in /  0.0mm 0 W/m2
21:14 76.3 °F /  24.6 °C 67.8 °F /  19.9 °C 29.7in /  1007.1hPa South 4.6mph /  7.4km/h 10.1mph /  16.3km/h 75% 0in /  0.0mm 0 W/m2
21:19 76.1 °F /  24.5 °C 67.6 °F /  19.8 °C 29.7in /  1007.1hPa South 3.9mph /  6.2km/h 10.1mph /  16.3km/h 75% 0in /  0.0mm 0 W/m2
21:24 76.1 °F /  24.5 °C 67.5 °F /  19.7 °C 29.8in /  1007.5hPa South 3.6mph /  5.8km/h 10.1mph /  16.3km/h 74.6% 0in /  0.0mm 0 W/m2
21:29 76.1 °F /  24.5 °C 67.3 °F /  19.6 °C 29.8in /  1007.5hPa South 1.6mph /  2.6km/h 10.1mph /  16.3km/h 74% 0in /  0.0mm 0 W/m2
21:34 76.1 °F /  24.5 °C 67.3 °F /  19.6 °C 29.8in /  1007.8hPa South 3.7mph /  6km/h 7.6mph /  12.2km/h 74% 0in /  0.0mm 0 W/m2
21:39 75.7 °F /  24.3 °C 66.7 °F /  19.3 °C 29.8in /  1007.8hPa SSE 2.2mph /  3.5km/h 10.1mph /  16.3km/h 73.7% 0in /  0.0mm 0 W/m2
21:44 75.7 °F /  24.3 °C 66.4 °F /  19.1 °C 29.8in /  1007.5hPa South 4.2mph /  6.8km/h 12.5mph /  20.1km/h 73% 0in /  0.0mm 0 W/m2
21:49 75.7 °F /  24.3 °C 66.2 °F /  19 °C 29.8in /  1007.8hPa South 3.6mph /  5.8km/h 10.1mph /  16.3km/h 72.4% 0in /  0.0mm 0 W/m2
21:54 75.7 °F /  24.3 °C 66 °F /  18.9 °C 29.8in /  1007.8hPa South 3.4mph /  5.4km/h 10.1mph /  16.3km/h 72% 0in /  0.0mm 0 W/m2
21:59 75.7 °F /  24.3 °C 66 °F /  18.9 °C 29.8in /  1007.8hPa SSW 2.9mph /  4.6km/h 7.6mph /  12.2km/h 71.9% 0in /  0.0mm 0 W/m2
22:04 75.9 °F /  24.4 °C 66 °F /  18.9 °C 29.8in /  1008.1hPa South 2.2mph /  3.5km/h 7.6mph /  12.2km/h 71.6% 0in /  0.0mm 0 W/m2
22:09 75.7 °F /  24.3 °C 66 °F /  18.9 °C 29.8in /  1008.1hPa South 2mph /  3.2km/h 7.6mph /  12.2km/h 72% 0in /  0.0mm 0 W/m2
22:14 75.7 °F /  24.3 °C 66 °F /  18.9 °C 29.8in /  1008.1hPa South 1.7mph /  2.8km/h 7.6mph /  12.2km/h 72% 0in /  0.0mm 0 W/m2
22:19 75.6 °F /  24.2 °C 65.7 °F /  18.7 °C 29.8in /  1008.5hPa SSW 1.1mph /  1.8km/h 4.9mph /  7.9km/h 71.3% 0in /  0.0mm 0 W/m2
22:24 75.6 °F /  24.2 °C 65.3 °F /  18.5 °C 29.8in /  1008.5hPa SSW 1.2mph /  2km/h 7.6mph /  12.2km/h 70.6% 0in /  0.0mm 0 W/m2
22:29 75.6 °F /  24.2 °C 64.9 °F /  18.3 °C 29.8in /  1008.5hPa South 3mph /  4.9km/h 10.1mph /  16.3km/h 69.6% 0in /  0.0mm 0 W/m2
22:34 75.7 °F /  24.3 °C 64.9 °F /  18.3 °C 29.8in /  1008.5hPa South 3.2mph /  5.1km/h 7.6mph /  12.2km/h 69.4% 0in /  0.0mm 0 W/m2
22:39 75.9 °F /  24.4 °C 64.9 °F /  18.3 °C 29.8in /  1008.5hPa South 2.2mph /  3.5km/h 7.6mph /  12.2km/h 69% 0in /  0.0mm 0 W/m2
22:44 76.1 °F /  24.5 °C 64.9 °F /  18.3 °C 29.8in /  1008.1hPa South 2.4mph /  3.9km/h 10.1mph /  16.3km/h 68.6% 0in /  0.0mm 0 W/m2
22:49 76.1 °F /  24.5 °C 65.1 °F /  18.4 °C 29.8in /  1008.5hPa South 2.1mph /  3.3km/h 7.6mph /  12.2km/h 69% 0in /  0.0mm 0 W/m2
22:54 75.9 °F /  24.4 °C 64.9 °F /  18.3 °C 29.8in /  1008.5hPa South 1.8mph /  2.9km/h 4.9mph /  7.9km/h 69% 0in /  0.0mm 0 W/m2
22:59 75.4 °F /  24.1 °C 64.9 °F /  18.3 °C 29.8in /  1008.5hPa South 1.2mph /  2km/h 7.6mph /  12.2km/h 70% 0in /  0.0mm 0 W/m2
23:04 75.2 °F /  24 °C 64.8 °F /  18.2 °C 29.8in /  1008.5hPa South 1.1mph /  1.8km/h 7.6mph /  12.2km/h 70% 0in /  0.0mm 0 W/m2
23:09 75.4 °F /  24.1 °C 64.6 °F /  18.1 °C 29.8in /  1008.5hPa South 2.1mph /  3.4km/h 10.1mph /  16.3km/h 69% 0in /  0.0mm 0 W/m2
23:14 75.4 °F /  24.1 °C 64.4 °F /  18 °C 29.8in /  1008.5hPa South 1.6mph /  2.5km/h 7.6mph /  12.2km/h 68.7% 0in /  0.0mm 0 W/m2
23:19 75.6 °F /  24.2 °C 64.4 °F /  18 °C 29.8in /  1008.8hPa SSE 1.8mph /  2.9km/h 10.1mph /  16.3km/h 68.4% 0in /  0.0mm 0 W/m2
23:24 75.6 °F /  24.2 °C 64 °F /  17.8 °C 29.8in /  1008.5hPa South 2.2mph /  3.6km/h 10.1mph /  16.3km/h 67.2% 0in /  0.0mm 0 W/m2
23:29 75.7 °F /  24.3 °C 64.8 °F /  18.2 °C 29.8in /  1008.8hPa South 0.7mph /  1.1km/h 4.9mph /  7.9km/h 68.8% 0in /  0.0mm 0 W/m2
23:34 75.7 °F /  24.3 °C 64.9 °F /  18.3 °C 29.8in /  1008.8hPa South 0.8mph /  1.3km/h 4.9mph /  7.9km/h 69.3% 0in /  0.0mm 0 W/m2
23:39 75.2 °F /  24 °C 64.8 °F /  18.2 °C 29.8in /  1008.8hPa South 2.4mph /  3.9km/h 7.6mph /  12.2km/h 69.6% 0in /  0.0mm 0 W/m2
23:44 75.2 °F /  24 °C 64.4 °F /  18 °C 29.8in /  1009.1hPa SSW 0.5mph /  0.8km/h 7.6mph /  12.2km/h 68.9% 0in /  0.0mm 0 W/m2
23:49 75.2 °F /  24 °C 64.2 °F /  17.9 °C 29.8in /  1009.1hPa South 2.9mph /  4.6km/h 7.6mph /  12.2km/h 68.7% 0in /  0.0mm 0 W/m2
23:54 75.4 °F /  24.1 °C 64.6 °F /  18.1 °C 29.8in /  1009.1hPa South 2.1mph /  3.3km/h 7.6mph /  12.2km/h 69% 0in /  0.0mm 0 W/m2
23:59 75.4 °F /  24.1 °C 64.8 °F /  18.2 °C 29.8in /  1009.1hPa South 0.9mph /  1.4km/h 4.9mph /  7.9km/h 69.3% 0in /  0.0mm 0 W/m2
Juneau County Weather
Compliments of Weather Underground - 2 mb